createdAt,value
2019-05-03T00:03:29.062Z,4.23
2019-05-03T00:09:33.635Z,5.00
2019-05-03T00:15:38.377Z,5.13
2019-05-03T00:21:43.015Z,4.67
2019-05-03T00:27:47.600Z,5.90
2019-05-03T00:33:53.897Z,4.90
2019-05-03T00:40:06.186Z,4.40
2019-05-03T00:46:12.500Z,4.20
2019-05-03T00:52:17.053Z,4.50
2019-05-03T00:58:22.525Z,5.50
2019-05-03T01:04:27.382Z,4.00
2019-05-03T01:10:33.106Z,4.93
2019-05-03T01:16:37.927Z,4.83
2019-05-03T01:22:42.582Z,5.30
2019-05-03T01:28:47.227Z,4.80
2019-05-03T01:34:52.412Z,4.90
2019-05-03T01:40:57.131Z,4.70
2019-05-03T01:47:03.337Z,5.90
2019-05-03T01:53:09.572Z,5.80
2019-05-03T01:59:14.155Z,6.77
2019-05-03T02:05:36.916Z,5.70
2019-05-03T02:11:42.130Z,5.37
2019-05-03T02:17:47.008Z,6.37
2019-05-03T02:23:52.057Z,6.60
2019-05-03T02:29:56.823Z,6.20
2019-05-03T02:36:03.760Z,6.63
2019-05-03T02:42:11.387Z,4.00
2019-05-03T02:48:25.588Z,3.33
2019-05-03T02:54:30.577Z,4.17
2019-05-03T03:00:56.047Z,3.37
2019-05-03T03:07:01.698Z,3.63
2019-05-03T03:13:09.164Z,4.27
2019-05-03T03:19:16.935Z,3.27
2019-05-03T03:25:26.219Z,3.93
2019-05-03T03:32:00.977Z,4.30
2019-05-03T03:38:05.849Z,4.00
2019-05-03T03:44:11.925Z,4.17
2019-05-03T03:50:16.629Z,4.23
2019-05-03T03:56:21.971Z,4.20
2019-05-03T04:02:26.733Z,4.00
2019-05-03T04:08:31.535Z,5.00
2019-05-03T04:14:50.014Z,4.30
2019-05-03T04:20:55.960Z,3.60
2019-05-03T04:27:18.527Z,3.80
2019-05-03T04:33:15.998Z,4.33
2019-05-03T04:39:20.451Z,4.37
2019-05-03T04:45:25.839Z,4.10
2019-05-03T04:51:30.498Z,4.30
2019-05-03T04:57:42.222Z,2.90
2019-05-03T05:03:41.319Z,3.77
2019-05-03T05:09:45.918Z,4.17
2019-05-03T05:15:50.466Z,3.67
2019-05-03T05:21:56.725Z,3.70
2019-05-03T05:28:04.718Z,3.60
2019-05-03T05:34:09.567Z,3.10
2019-05-03T05:40:15.636Z,3.90
2019-05-03T05:46:21.934Z,2.80
2019-05-03T05:52:26.501Z,2.87
2019-05-03T05:58:34.671Z,1.93
2019-05-03T06:04:39.019Z,3.47
2019-05-03T06:11:00.532Z,2.93
2019-05-03T06:17:18.961Z,1.87
2019-05-03T06:23:25.171Z,2.10
2019-05-03T06:29:29.718Z,2.43
2019-05-03T06:35:34.615Z,2.40
2019-05-03T06:41:39.425Z,1.97
2019-05-03T06:47:45.985Z,2.17
2019-05-03T06:53:50.719Z,2.00
2019-05-03T07:00:15.358Z,2.97
2019-05-03T07:06:33.368Z,1.67
2019-05-03T07:12:29.315Z,2.03
2019-05-03T07:18:35.202Z,2.07
2019-05-03T07:24:40.896Z,1.83
2019-05-03T07:30:45.732Z,2.03
2019-05-03T07:36:50.283Z,2.77
2019-05-03T07:42:55.679Z,2.03
2019-05-03T07:49:00.317Z,2.17
2019-05-03T07:55:06.626Z,1.57
2019-05-03T08:01:14.837Z,1.90
2019-05-03T08:07:22.406Z,1.53
2019-05-03T08:13:25.482Z,2.27
2019-05-03T08:19:30.204Z,1.70
2019-05-03T08:25:35.474Z,1.73
2019-05-03T08:31:45.459Z,1.43
2019-05-03T08:37:51.785Z,2.00
2019-05-03T08:43:56.411Z,6.40
2019-05-03T08:50:00.993Z,2.23
2019-05-03T08:56:08.926Z,5.80
2019-05-03T09:02:16.414Z,1.93
2019-05-03T09:08:19.895Z,2.90
2019-05-03T09:14:24.686Z,1.70
2019-05-03T09:20:32.338Z,2.00
2019-05-03T09:26:37.078Z,1.50
2019-05-03T09:32:41.636Z,2.23
2019-05-03T09:38:46.339Z,1.50
2019-05-03T09:44:52.558Z,1.80
2019-05-03T09:50:57.297Z,2.23
2019-05-03T09:57:01.853Z,1.47
2019-05-03T10:03:06.647Z,1.60
2019-05-03T10:09:11.277Z,2.80
2019-05-03T10:15:37.064Z,1.67
2019-05-03T10:21:44.888Z,2.73
2019-05-03T10:27:49.524Z,2.03
2019-05-03T10:33:55.735Z,2.00
2019-05-03T10:40:05.149Z,1.30
2019-05-03T10:46:08.754Z,1.20
2019-05-03T10:52:15.034Z,1.80
2019-05-03T10:58:20.189Z,1.43
2019-05-03T11:04:25.515Z,1.80
2019-05-03T11:10:30.157Z,2.47
2019-05-03T11:16:35.291Z,1.70
2019-05-03T11:22:40.009Z,1.77
2019-05-03T11:28:44.909Z,2.40
2019-05-03T11:34:51.268Z,3.43
2019-05-03T11:40:56.119Z,1.60
2019-05-03T11:47:00.868Z,1.97
2019-05-03T11:53:05.613Z,2.30
2019-05-03T11:59:10.161Z,1.67
2019-05-03T12:05:24.481Z,1.93
2019-05-03T12:11:30.898Z,2.00
2019-05-03T12:17:50.404Z,1.90
2019-05-03T12:23:45.855Z,2.50
2019-05-03T12:29:52.336Z,1.97
2019-05-03T12:35:56.361Z,2.00
2019-05-03T12:42:01.004Z,1.67
2019-05-03T12:48:05.933Z,2.23
2019-05-03T12:54:10.566Z,8.50
2019-05-03T13:00:15.623Z,4.50
2019-05-03T13:06:20.364Z,1.60
2019-05-03T13:12:26.576Z,2.00
2019-05-03T13:18:31.127Z,1.80
2019-05-03T13:24:35.747Z,1.90
2019-05-03T13:30:40.300Z,1.73
2019-05-03T13:36:45.646Z,1.80
2019-05-03T13:42:57.661Z,1.80
2019-05-03T13:48:56.651Z,2.00
2019-05-03T13:55:01.244Z,2.10
2019-05-03T14:01:06.065Z,1.90
2019-05-03T14:07:10.777Z,1.80
2019-05-03T14:13:15.354Z,2.00
2019-05-03T14:19:30.213Z,1.80
2019-05-03T14:25:35.182Z,2.67
2019-05-03T14:31:39.840Z,1.67
2019-05-03T14:37:45.859Z,1.93
2019-05-03T14:43:50.804Z,2.50
2019-05-03T14:49:55.521Z,3.30
2019-05-03T14:56:07.847Z,2.50
2019-05-03T15:02:39.494Z,1.40
2019-05-03T15:08:32.267Z,2.27
2019-05-03T15:14:36.900Z,1.93
2019-05-03T15:20:41.515Z,1.60
2019-05-03T15:26:46.079Z,2.10
2019-05-03T15:32:59.491Z,2.50
2019-05-03T15:38:56.921Z,1.80
2019-05-03T15:45:05.088Z,1.83
2019-05-03T15:51:09.429Z,2.70
2019-05-03T15:57:14.452Z,2.40
2019-05-03T16:03:19.205Z,1.80
2019-05-03T16:09:24.618Z,1.83
2019-05-03T16:15:29.294Z,3.70
2019-05-03T16:21:34.126Z,2.30
2019-05-03T16:27:41.925Z,2.37
2019-05-03T16:33:46.550Z,1.80
2019-05-03T16:39:51.161Z,2.10
2019-05-03T16:45:55.716Z,1.90
2019-05-03T16:52:00.280Z,2.33
2019-05-03T16:58:05.074Z,1.90
2019-05-03T17:04:25.143Z,2.30
2019-05-03T17:10:34.807Z,3.13
2019-05-03T17:16:39.572Z,1.90
2019-05-03T17:22:45.027Z,2.00
2019-05-03T17:28:49.832Z,2.57
2019-05-03T17:34:54.863Z,3.20
2019-05-03T17:41:14.867Z,1.90
2019-05-03T17:47:19.595Z,2.80
2019-05-03T17:53:35.816Z,2.80
2019-05-03T17:59:45.259Z,3.00
2019-05-03T18:05:54.339Z,3.47
2019-05-03T18:12:04.662Z,2.77
2019-05-03T18:18:09.363Z,2.10
2019-05-03T18:24:15.375Z,2.73
2019-05-03T18:30:20.788Z,3.90
2019-05-03T18:36:25.441Z,3.70
2019-05-03T18:42:35.277Z,2.40
2019-05-03T18:48:39.932Z,2.70
2019-05-03T18:54:44.579Z,2.67
2019-05-03T19:00:49.199Z,2.30
2019-05-03T19:07:03.775Z,2.33
2019-05-03T19:13:00.037Z,3.03
2019-05-03T19:19:06.166Z,2.33
2019-05-03T19:25:10.867Z,2.27
2019-05-03T19:31:15.500Z,2.20
2019-05-03T19:37:20.040Z,3.30
2019-05-03T19:43:27.039Z,2.20
2019-05-03T19:49:30.958Z,2.13
2019-05-03T19:55:35.649Z,2.43
2019-05-03T20:01:41.848Z,2.00
2019-05-03T20:07:57.129Z,2.63
2019-05-03T20:14:01.543Z,2.47
2019-05-03T20:20:07.780Z,2.90
2019-05-03T20:26:12.324Z,2.40
2019-05-03T20:32:17.345Z,4.30
2019-05-03T20:38:21.888Z,2.80
2019-05-03T20:44:28.076Z,3.20
2019-05-03T20:50:32.622Z,2.87
2019-05-03T20:56:37.186Z,3.43
2019-05-03T21:02:51.558Z,4.00
2019-05-03T21:08:53.028Z,3.20
2019-05-03T21:14:55.645Z,2.57
2019-05-03T21:21:04.660Z,2.70
2019-05-03T21:27:09.223Z,2.77
2019-05-03T21:33:15.648Z,2.67
2019-05-03T21:39:20.015Z,2.60
2019-05-03T21:45:26.201Z,2.90
2019-05-03T21:51:30.818Z,3.60
2019-05-03T21:57:35.350Z,3.37
2019-05-03T22:03:40.130Z,2.43
2019-05-03T22:09:45.315Z,3.60
2019-05-03T22:15:51.702Z,2.53
2019-05-03T22:22:00.349Z,3.00
2019-05-03T22:28:07.107Z,2.60
2019-05-03T22:34:11.246Z,3.07
2019-05-03T22:40:15.854Z,3.17
2019-05-03T22:46:20.394Z,4.33
2019-05-03T22:52:25.777Z,8.17
2019-05-03T22:58:30.496Z,5.30
2019-05-03T23:04:35.580Z,4.27
2019-05-03T23:10:40.355Z,4.90
2019-05-03T23:16:45.129Z,4.23
2019-05-03T23:22:49.893Z,2.70
2019-05-03T23:28:55.138Z,3.10
2019-05-03T23:34:59.865Z,3.23
2019-05-03T23:41:04.931Z,6.20
2019-05-03T23:47:11.248Z,4.07
2019-05-03T23:53:15.788Z,3.57
2019-05-03T23:59:20.319Z,3.93
